Saint-Pierre, Reunion
Current Conditions -  °F | °C
As of 5:00 AM on Sunday 21 Dec 2014 (Local Time) from FMEP Reporting Station
Few Clouds Few Clouds  
Wind Chill: 77°   Ceiling: Unl
Heat Index: 78°   Visibility: 6mi
Dew Point: 72°   Wind: 5mph
Humidity: 83%   Direction: 20°NNE
Pressure: 29.85"   Gusts: NA
Location:  21.32°S, 55.47°E
Report Text: FMEP 210100Z AUTO 02004KT 9999 FEW096/// 25/22 Q1011
Loading
Personal Weather Stations






























Interactive Weather Map New forecast layout! Learn more

10-Day Weather Forecast

Advertisements
Track Severe Weather on mobile